Time;durP1;ratioP1;P1;durP2;ratioP2;P2;SDS_P1;SDS_P2;PMS_P1;PMS_P2;Temp;Humidity;BMP_temperature;BMP_pressure;BME280_temperature;BME280_humidity;BME280_pressure;Samples;Min_cycle;Max_cycle;Signal;HPM_P1;HPM_P2
2024/04/18 05:10:27;;;;;;;0.20;0.20;;;;;;;16.74;49.70;75644.56;5436697;21;20020;-88
2024/04/18 05:12:54;;;;;;;0.20;0.20;;;;;;;17.24;47.88;75701.16;5334290;26;19997;-87
2024/04/18 05:15:20;;;;;;;0.20;0.20;;;;;;;16.45;48.41;75607.56;5308425;26;20023;-88
2024/04/18 05:17:45;;;;;;;0.20;0.20;;;;;;;16.23;48.31;75585.16;5306526;27;20016;-87
2024/04/18 05:20:11;;;;;;;0.20;0.20;;;;;;;16.79;48.42;75645.00;5252263;27;20082;-90
2024/04/18 05:22:36;;;;;;;0.20;0.20;;;;;;;17.11;46.17;75688.38;5316472;26;20038;-88
2024/04/18 05:25:01;;;;;;;0.20;0.20;;;;;;;17.39;45.00;75715.78;5281503;26;20013;-88
2024/04/18 05:27:27;;;;;;;0.20;0.20;;;;;;;18.40;41.75;75834.06;5304639;26;20009;-89
2024/04/18 05:32:39;;;;;;;0.20;0.20;;;;;;;16.02;46.69;75562.16;5344224;26;20008;-88
2024/04/18 05:35:05;;;;;;;0.20;0.20;;;;;;;16.91;46.15;75662.16;5341880;26;20020;-88
2024/04/18 05:37:30;;;;;;;0.20;0.20;;;;;;;17.51;43.03;75732.97;5344618;26;19997;-88
2024/04/18 05:39:55;;;;;;;0.20;0.20;;;;;;;18.08;42.64;75794.03;5312784;26;20000;-88
2024/04/18 05:42:24;;;;;;;0.20;0.20;;;;;;;17.85;42.01;75774.81;5312837;26;20099;-87
2024/04/18 05:44:49;;;;;;;0.20;0.20;;;;;;;17.51;41.51;75729.56;5312643;26;19997;-87
2024/04/18 05:47:14;;;;;;;0.20;0.20;;;;;;;17.70;41.75;75751.78;5312098;26;20317;-87
2024/04/18 05:49:40;;;;;;;0.20;0.20;;;;;;;17.51;41.61;75732.38;5312598;26;20008;-88
2024/04/18 05:52:08;;;;;;;0.20;0.20;;;;;;;16.46;43.45;75612.16;5312907;26;20008;-88
2024/04/18 05:54:36;;;;;;;0.20;0.20;;;;;;;18.32;40.42;75827.84;5311252;26;20440;-89
2024/04/18 05:57:02;;;;;;;0.20;0.20;;;;;;;18.07;40.94;75804.03;5312708;26;20011;-89
2024/04/18 05:59:27;;;;;;;0.20;0.20;;;;;;;18.95;38.70;75904.53;5343494;26;20440;-88
2024/04/18 06:01:53;;;;;;;0.20;0.20;;;;;;;18.44;41.07;75836.66;5343756;26;19993;-89
2024/04/18 06:04:18;;;;;;;0.20;0.20;;;;;;;18.29;41.89;75827.03;5343278;26;19993;-88
2024/04/18 06:06:44;;;;;;;0.20;0.20;;;;;;;18.48;41.28;75844.28;5314043;26;20551;-88
2024/04/18 06:09:09;;;;;;;0.20;0.20;;;;;;;18.66;40.46;75865.28;5306335;27;20044;-89
2024/04/18 06:11:42;;;;;;;0.20;0.20;;;;;;;19.59;38.74;75975.25;5281502;27;20006;-84
2024/04/18 06:14:08;;;;;;;0.20;0.20;;;;;;;19.31;40.07;75941.59;5284097;27;20012;-86
2024/04/18 06:16:34;;;;;;;0.20;0.20;;;;;;;18.56;42.32;75856.06;5311388;27;19997;-90
2024/04/18 06:19:00;;;;;;;0.20;0.20;;;;;;;18.58;44.42;75858.47;5283130;27;19997;-90
2024/04/18 06:21:25;;;;;;;0.20;0.20;;;;;;;18.78;42.46;75879.72;5310998;27;19998;-90
2024/04/18 06:23:51;;;;;;;0.20;0.20;;;;;;;19.00;41.58;75911.13;5307291;27;20160;-89
2024/04/18 06:26:17;;;;;;;0.20;0.20;;;;;;;18.18;41.96;75811.63;5281953;27;20013;-87
2024/04/18 06:28:42;;;;;;;0.20;0.20;;;;;;;19.05;41.29;75910.94;5312153;27;20009;-86
2024/04/18 06:31:08;;;;;;;0.20;0.20;;;;;;;20.49;38.16;76086.06;5282323;27;20389;-87
2024/04/18 06:33:33;;;;;;;0.20;0.20;;;;;;;20.46;37.75;76071.22;5312105;27;20358;-85
2024/04/18 06:35:59;;;;;;;0.20;0.20;;;;;;;20.29;39.47;76054.78;5312067;27;20014;-87
2024/04/18 06:38:24;;;;;;;0.20;0.20;;;;;;;20.88;38.66;76133.00;5313259;27;20001;-87
2024/04/18 06:40:50;;;;;;;0.20;0.20;;;;;;;20.42;38.35;76076.03;5314126;27;19998;-86
2024/04/18 06:43:15;;;;;;;0.20;0.20;;;;;;;20.15;39.96;76037.97;5312081;27;20030;-87
2024/04/18 06:45:43;;;;;;;0.20;0.20;;;;;;;19.04;43.36;75909.75;5312612;27;20006;-89
2024/04/18 06:48:08;;;;;;;0.20;0.20;;;;;;;20.10;41.51;76031.94;5282035;27;20001;-89
2024/04/18 06:50:35;;;;;;;0.20;0.20;;;;;;;18.36;45.61;75834.84;5312780;27;20008;-92
2024/04/18 06:56:23;;;;;;;0.20;0.20;;;;;;;18.02;47.57;75790.22;5359742;21;20045;-90
2024/04/18 06:59:14;;;;;;;0.20;0.20;;;;;;;19.32;45.57;75940.56;5351693;26;20436;-89
2024/04/18 07:01:40;;;;;;;0.20;0.20;;;;;;;19.24;45.03;75933.78;5347843;26;20009;-89
2024/04/18 07:04:05;;;;;;;0.20;0.20;;;;;;;19.87;44.15;76004.91;5320621;26;20007;-89
2024/04/18 07:06:31;;;;;;;0.20;0.20;;;;;;;19.98;43.30;76020.34;5341202;26;20706;-87
2024/04/18 07:08:57;;;;;;;0.20;0.20;;;;;;;20.23;42.95;76052.59;5312131;27;20012;-89
2024/04/18 07:11:22;;;;;;;0.20;0.20;;;;;;;20.42;42.40;76078.84;5281582;27;20013;-87
2024/04/18 07:13:51;;;;;;;0.20;0.20;;;;;;;20.14;41.41;76039.56;5311770;27;19998;-89
2024/04/18 07:16:16;;;;;;;0.20;0.20;;;;;;;19.89;41.92;76010.72;5276864;27;20430;-89
2024/04/18 07:18:42;;;;;;;0.20;0.20;;;;;;;19.23;43.15;75935.38;5336379;26;19996;-89
2024/04/18 07:21:07;;;;;;;0.20;0.20;;;;;;;20.53;41.68;76079.66;5317829;26;19997;-89
2024/04/18 07:23:33;;;;;;;0.20;0.20;;;;;;;20.66;40.21;76098.09;5321750;26;20737;-88
2024/04/18 07:25:58;;;;;;;0.20;0.20;;;;;;;19.21;43.31;75929.56;5336768;26;20000;-88
2024/04/18 07:28:24;;;;;;;0.20;0.20;;;;;;;18.95;44.59;75904.53;5368359;26;19996;-88
2024/04/18 07:30:49;;;;;;;0.20;0.20;;;;;;;17.86;45.53;75776.00;5361989;26;20642;-89
2024/04/18 07:33:15;;;;;;;0.20;0.20;;;;;;;17.58;47.22;75743.59;5318971;26;20004;-87
2024/04/18 07:35:55;;;;;;;0.20;0.20;;;;;;;17.34;47.43;75709.19;5350169;26;20011;-88
2024/04/18 07:38:21;;;;;;;0.20;0.20;;;;;;;17.24;48.20;75698.38;5319763;26;20009;-88
2024/04/18 07:40:46;;;;;;;0.20;0.20;;;;;;;17.36;47.63;75717.16;5318013;26;19997;-87
2024/04/18 07:43:11;;;;;;;0.20;0.20;;;;;;;16.81;49.17;75649.56;5318124;26;20005;-89
2024/04/18 07:45:38;;;;;;;0.20;0.20;;;;;;;17.35;49.27;75710.38;5346943;26;20005;-88
2024/04/18 07:48:05;;;;;;;0.20;0.20;;;;;;;16.72;52.80;75642.78;5301011;27;19998;-89
2024/04/18 07:50:30;;;;;;;0.20;0.20;;;;;;;16.86;52.72;75655.56;5312750;27;20013;-89
2024/04/18 07:52:56;;;;;;;0.20;0.20;;;;;;;16.61;54.19;75623.97;5282381;27;19994;-86
2024/04/18 07:55:23;;;;;;;0.20;0.20;;;;;;;16.60;54.58;75619.97;5313616;27;20001;-89
2024/04/18 07:57:48;;;;;;;0.20;0.20;;;;;;;16.53;55.27;75614.38;5282095;27;20013;-87
2024/04/18 08:00:16;;;;;;;0.20;0.20;;;;;;;16.90;54.90;75663.16;5311562;27;20453;-88
2024/04/18 08:02:43;;;;;;;0.20;0.20;;;;;;;16.77;55.57;75640.38;5280728;27;20515;-88
2024/04/18 08:05:09;;;;;;;0.20;0.20;;;;;;;17.59;52.10;75738.59;5281343;27;20001;-89
2024/04/18 08:07:34;;;;;;;0.20;0.20;;;;;;;17.29;52.62;75709.97;5281469;27;20071;-87
2024/04/18 08:10:00;;;;;;;0.20;0.20;;;;;;;17.94;51.74;75783.41;5280670;27;20005;-88
2024/04/18 08:12:25;;;;;;;0.20;0.20;;;;;;;18.69;50.05;75868.91;5292586;27;20030;-88
2024/04/18 08:14:50;;;;;;;0.20;0.20;;;;;;;18.91;48.97;75894.75;5266117;27;20362;-88
2024/04/18 08:17:17;;;;;;;0.20;0.20;;;;;;;18.05;50.17;75796.63;5334259;26;20001;-88
2024/04/18 08:19:42;;;;;;;0.20;0.20;;;;;;;18.03;51.47;75794.22;5314247;26;19997;-87
2024/04/18 08:22:08;;;;;;;0.20;0.20;;;;;;;17.24;51.19;75697.78;5341763;26;20004;-88
2024/04/18 08:24:35;;;;;;;0.20;0.20;;;;;;;16.77;51.83;75643.16;5250309;27;19998;-88
2024/04/18 08:27:01;;;;;;;0.20;0.20;;;;;;;16.51;52.77;75614.75;5246640;27;20505;-88
2024/04/18 08:29:31;;;;;;;0.20;0.20;;;;;;;16.66;52.74;75635.53;5248365;27;20010;-88
2024/04/18 08:31:56;;;;;;;0.20;0.20;;;;;;;16.28;53.36;75584.97;5246576;27;19998;-88
2024/04/18 08:34:21;;;;;;;0.20;0.20;;;;;;;16.76;54.01;75644.16;5246726;27;20450;-88
2024/04/18 08:36:47;;;;;;;0.20;0.20;;;;;;;16.98;53.61;75669.97;5276232;27;20017;-88
2024/04/18 08:39:15;;;;;;;0.20;0.20;;;;;;;17.09;52.73;75676.97;5275221;27;19998;-87
2024/04/18 08:41:42;;;;;;;0.20;0.20;;;;;;;16.70;54.35;75634.75;5275592;27;20076;-87
2024/04/18 08:44:08;;;;;;;0.20;0.20;;;;;;;16.33;54.89;75590.38;5245565;27;20707;-86
2024/04/18 08:46:36;;;;;;;0.20;0.20;;;;;;;16.48;52.64;75605.59;5305196;26;20009;-88
2024/04/18 08:49:05;;;;;;;0.20;0.20;;;;;;;16.52;51.06;75612.59;5313306;26;20008;-85
2024/04/18 08:51:34;;;;;;;0.20;0.20;;;;;;;16.40;50.64;75607.13;5312801;26;20004;-85
2024/04/18 08:54:00;;;;;;;0.20;0.20;;;;;;;16.48;50.98;75611.75;5313421;26;19993;-85
2024/04/18 08:56:31;;;;;;;0.20;0.20;;;;;;;16.56;51.34;75620.75;5343424;26;20024;-88
2024/04/18 08:58:56;;;;;;;0.20;0.20;;;;;;;16.41;52.08;75603.38;5316085;26;20459;-87
2024/04/18 09:01:23;;;;;;;0.20;0.20;;;;;;;16.29;54.04;75585.59;5316871;26;19997;-86
2024/04/18 09:03:54;;;;;;;0.20;0.20;;;;;;;16.39;54.72;75600.38;5347184;26;20004;-88
2024/04/18 09:06:19;;;;;;;0.20;0.20;;;;;;;16.37;55.88;75603.56;5346267;26;20428;-88
2024/04/18 09:08:49;;;;;;;0.20;0.20;;;;;;;16.12;56.98;75571.97;5314608;26;20135;-88
2024/04/18 09:19:03;;;;;;;0.20;0.20;;;;;;;15.36;57.98;75479.25;5351338;21;20037;-88
2024/04/18 12:45:09;;;;;;;0.20;0.20;;;;;;;17.55;45.25;75734.38;5405041;21;20722;-87
2024/04/18 12:47:35;;;;;;;0.20;0.20;;;;;;;17.45;44.69;75722.97;5320920;26;19992;-88
2024/04/18 12:50:00;;;;;;;0.20;0.20;;;;;;;17.29;45.10;75709.97;5326280;26;20001;-87
2024/04/18 12:52:25;;;;;;;0.20;0.20;;;;;;;17.96;44.09;75782.44;5313379;26;20574;-88
2024/04/18 12:54:51;;;;;;;0.20;0.20;;;;;;;17.57;44.72;75736.16;5327153;26;19996;-88
2024/04/18 12:57:16;;;;;;;0.20;0.20;;;;;;;17.64;44.48;75744.59;5344332;26;20071;-89
2024/04/18 12:59:42;;;;;;;0.20;0.20;;;;;;;17.66;44.71;75753.16;5343719;26;20359;-89
2024/04/18 13:02:08;;;;;;;0.20;0.20;;;;;;;17.07;44.89;75675.19;5346321;26;20044;-87
2024/04/18 13:04:38;;;;;;;0.20;0.20;;;;;;;16.73;45.35;75640.59;5317548;26;20017;-88
2024/04/18 13:07:04;;;;;;;0.20;0.20;;;;;;;16.82;44.58;75648.56;5320796;26;20001;-86
2024/04/18 13:09:30;;;;;;;0.20;0.20;;;;;;;17.26;43.87;75700.19;5282829;27;19998;-89
2024/04/18 13:11:55;;;;;;;0.20;0.20;;;;;;;17.49;44.46;75729.97;5263938;27;20453;-89
2024/04/18 13:14:21;;;;;;;0.20;0.20;;;;;;;17.54;44.41;75727.59;5294718;26;20009;-88
2024/04/18 13:16:49;;;;;;;0.20;0.20;;;;;;;17.18;45.34;75691.16;5322085;26;20052;-88
2024/04/18 13:19:15;;;;;;;0.20;0.20;;;;;;;17.87;43.72;75777.81;5315214;26;20007;-86
2024/04/18 13:21:41;;;;;;;0.20;0.20;;;;;;;17.68;43.14;75752.78;5313622;26;20000;-87
2024/04/18 13:24:09;;;;;;;0.20;0.20;;;;;;;17.55;43.42;75734.97;5301127;26;20002;-87
2024/04/18 13:26:35;;;;;;;0.20;0.20;;;;;;;18.18;43.36;75811.63;5306868;26;20001;-90
2024/04/18 13:29:00;;;;;;;0.20;0.20;;;;;;;18.89;42.61;75894.53;5312156;26;20011;-90
2024/04/18 13:31:26;;;;;;;0.20;0.20;;;;;;;18.47;43.80;75845.25;5309962;26;20020;-88
2024/04/18 13:33:53;;;;;;;0.20;0.20;;;;;;;18.17;44.32;75807.63;5280705;27;20017;-89
2024/04/18 13:36:19;;;;;;;0.20;0.20;;;;;;;17.93;46.21;75785.00;5310868;26;20013;-90
2024/04/18 13:38:45;;;;;;;0.20;0.20;;;;;;;17.29;47.15;75704.38;5279893;27;20329;-88
2024/04/18 13:41:11;;;;;;;0.20;0.20;;;;;;;17.31;47.28;75705.56;5259762;26;20046;-86
2024/04/18 16:18:48;;;;;;;0.20;0.20;;;;;;;15.02;60.08;75436.94;5453164;21;20013;-85
2024/04/18 17:24:19;;;;;;;0.20;0.20;;;;;;;13.78;65.78;75293.53;5351615;26;20391;-86
2024/04/18 17:26:45;;;;;;;0.20;0.20;;;;;;;14.09;65.93;75333.44;5336139;26;20012;-87
2024/04/18 17:29:11;;;;;;;0.20;0.20;;;;;;;14.07;66.02;75328.28;5302795;26;20001;-87
2024/04/18 17:31:37;;;;;;;0.20;0.20;;;;;;;14.07;66.10;75327.69;5305338;27;20037;-87
2024/04/18 17:34:04;;;;;;;0.20;0.20;;;;;;;14.01;66.65;75318.31;5344894;26;20001;-88
